Terminal Aerodrome Forecast
Issued by NWS Greer, SC

Home | Current Version | Previous Version | Text Only | Print | Product List | Glossary On
Versions: 1 2 3 4 5 6 7 8 9 10 11 12 13 14 15 16 17 18 19 20 21 22 23 24 25 26 27
147
FTUS42 KGSP 221001 AAC
TAFGSP
TAF AMD
KGSP 221001Z 2210/2306 20010KT P6SM OVC005
     FM221500 21008KT P6SM SCT015 BKN025
     FM221800 22008KT P6SM BKN040
     FM230400 20003KT 6SM BR BKN019=

USA.gov is the U.S. government's official web portal to all federal, state and local government web resources and services.